Aeroporto :
LOGIN :

Iscrizione | Disclaimer

   EN    FR    IT 

 










Sommario :    VFR   VFR Marginale   IFR   IFR Intensivo   IFR Molto Intensivo
Visibilità : 
Base nubi : 
>= 8 km
>= 3000ft
5 / 8 km
1000 / 3000 ft
1500m / 5 km
500 / 1000 ft
800 / 1500m
200 / 500 ft
< 800m
< 200 ft
Simboli :   Temporali  Nebbia  Neve Forte  Precipitazioni Forti  Vento > 20 kt
SIGMETs :   Varie  Temporali  Ghiacco  Turbolenza  Onda orograficha  Ceneri Vulcaniche






- Altitudine del aeroporto : -13 ft
- Codice IATA : LEY


EHLE - Lelystad

ULTIMO METAR :
  • 071525Z AUTO 34006KT 280V060 9999 SCT042 22/12 Q1024 NOSIG

METARs OBSOLETI :
  • 071455Z AUTO 33007KT 280V020 9999 NSC 21/11 Q1024 NOSIG
  • 071425Z AUTO 32009KT 270V010 9999 NSC 22/11 Q1024 NOSIG
  • 071355Z AUTO 33009KT 290V360 9999 NSC 22/11 Q1024 NOSIG
  • 071325Z AUTO 34008KT 290V030 9999 NSC 21/10 Q1025 NOSIG
  • 071255Z AUTO 33007KT 280V360 9999 NSC 22/10 Q1025 NOSIG

TAF TAF EHLE
Valido dal 07 a 12 ore il 08 a 18 ore UTC


071106Z 0712/0818 35007KT 9999 SCT030
BECMG 0722/0801 VRB02KT 5000 BR MIFG
PROB30
TEMPO 0800/0805 0700 BCFG
BECMG 0803/0806 9999 NSW
BECMG 0809/0812 34008KT



MetMap, La meteo Aeronautica in un colpo d'occhio ! - Copyright ORBIFLY Dicembre 2007 - Disclaimer

ORBIFLY MET'MAP TEAM :

Programmazione e sviluppo : Alexandra Zaïnal
Concezione : Baudouin d'Aumeries
Supporto tecnico e logistico : Manuel Goepfert
Aiuto : Marc-Olivier Méhu
Aiuto per la traduzione : Arnaldo La Scala




FONTI E CREDITI :

   NOAA